Time;durP1;ratioP1;P1;durP2;ratioP2;P2;SDS_P1;SDS_P2;PMS_P1;PMS_P2;Temp;Humidity;BMP_temperature;BMP_pressure;BME280_temperature;BME280_humidity;BME280_pressure;Samples;Min_cycle;Max_cycle;Signal;HPM_P1;HPM_P2
2021/12/24 00:01:54;;;;;;;47.85;23.30;;;6.40;53.70;;;;;;5111139;28;20028;-85
2021/12/24 00:04:21;;;;;;;50.03;24.63;;;6.40;53.30;;;;;;5092785;28;20081;-85
2021/12/24 00:06:51;;;;;;;51.28;25.13;;;6.40;53.60;;;;;;5092909;28;20511;-84
2021/12/24 00:09:23;;;;;;;51.03;27.40;;;6.00;54.40;;;;;;5093077;28;20382;-85
2021/12/24 00:11:51;;;;;;;45.72;24.73;;;6.00;54.90;;;;;;5092691;28;20053;-85
2021/12/24 00:14:17;;;;;;;44.55;22.80;;;6.40;53.70;;;;;;5092593;28;20352;-85
2021/12/24 00:16:45;;;;;;;48.80;25.40;;;6.10;54.10;;;;;;5092410;28;20542;-84
2021/12/24 00:19:41;;;;;;;46.20;23.55;;;6.00;54.50;;;;;;5092444;28;20032;-85
2021/12/24 00:35:35;;;;;;;43.78;23.13;;;6.50;54.00;;;;;;5082118;28;20500;-84
2021/12/24 00:38:06;;;;;;;49.03;25.17;;;6.70;53.50;;;;;;5065922;28;20047;-83
2021/12/24 00:40:39;;;;;;;50.08;26.15;;;6.80;53.20;;;;;;5078067;28;20024;-85
2021/12/24 00:43:06;;;;;;;56.90;27.20;;;7.00;52.80;;;;;;5078562;28;20020;-85
2021/12/24 00:45:50;;;;;;;49.53;25.65;;;7.30;52.00;;;;;;5086236;27;1404947;-84
2021/12/24 00:50:24;;;;;;;52.15;25.92;;;7.20;51.90;;;;;;5074063;27;1696128;-81
2021/12/24 00:55:02;;;;;;;55.65;26.27;;;7.30;52.70;;;;;;5093241;28;20035;-84
2021/12/24 00:55:36;;;;;;;49.08;24.42;;;7.40;52.10;;;;;;5111181;28;20032;-83
2021/12/24 00:58:04;;;;;;;54.33;27.20;;;7.10;53.30;;;;;;5111277;28;20399;-82
2021/12/24 01:00:36;;;;;;;51.22;26.88;;;7.00;52.90;;;;;;5093443;28;20115;-83
2021/12/24 01:03:04;;;;;;;51.88;26.02;;;7.00;53.20;;;;;;5111626;28;20124;-83
2021/12/24 01:05:31;;;;;;;53.83;26.92;;;6.90;53.50;;;;;;5083335;28;20380;-82
2021/12/24 01:09:43;;;;;;;57.75;28.08;;;6.90;53.90;;;;;;5054759;27;1537899;-82
2021/12/24 01:12:09;;;;;;;56.33;26.67;;;6.90;54.30;;;;;;5086152;28;20016;-82
2021/12/24 01:14:37;;;;;;;55.25;26.98;;;7.10;54.10;;;;;;5088151;28;20032;-82
2021/12/24 01:17:19;;;;;;;51.78;26.42;;;6.90;54.20;;;;;;5070538;28;20127;-83
2021/12/24 01:21:21;;;;;;;55.78;28.13;;;6.60;54.10;;;;;;5109954;27;20781;-83
2021/12/24 01:26:42;;;;;;;54.15;27.42;;;4.60;59.20;;;;;;5091955;28;20034;-82
2021/12/24 01:42:43;;;;;;;57.10;27.80;;;6.00;58.40;;;;;;5088992;28;20046;-82
2021/12/24 01:45:15;;;;;;;55.92;27.90;;;6.20;57.80;;;;;;5089920;28;20031;-82
2021/12/24 01:47:40;;;;;;;57.22;28.95;;;6.10;57.60;;;;;;5089478;28;22159;-82
2021/12/24 01:50:06;;;;;;;57.67;29.90;;;6.20;57.80;;;;;;5083300;28;20031;-83
2021/12/24 01:52:32;;;;;;;61.30;29.70;;;6.30;57.20;;;;;;5090832;28;20126;-82
2021/12/24 01:54:58;;;;;;;59.05;29.88;;;6.20;57.60;;;;;;5089651;28;20134;-83
2021/12/24 01:57:23;;;;;;;56.42;28.88;;;6.30;57.50;;;;;;5087176;28;20024;-83
2021/12/24 02:02:16;;;;;;;62.28;30.10;;;5.80;58.30;;;;;;5113886;27;20424;-82
2021/12/24 02:05:09;;;;;;;61.25;30.85;;;5.80;59.00;;;;;;5118129;28;20106;-82
2021/12/24 02:07:54;;;;;;;57.65;29.80;;;6.10;58.70;;;;;;5123889;28;20019;-83
2021/12/24 02:10:43;;;;;;;64.75;30.88;;;6.40;58.40;;;;;;5104531;28;20028;-82
2021/12/24 02:13:09;;;;;;;56.97;29.25;;;6.70;57.30;;;;;;5105736;28;20030;-82
2021/12/24 02:30:23;;;;;;;68.40;32.80;;;6.40;57.90;;;;;;5060898;28;20067;-85
2021/12/24 02:33:53;;;;;;;56.15;29.35;;;6.10;58.20;;;;;;5073087;28;20040;-85
2021/12/24 02:36:20;;;;;;;64.05;31.92;;;6.30;58.30;;;;;;5032999;28;20586;-86
2021/12/24 02:38:46;;;;;;;60.05;31.13;;;5.90;58.90;;;;;;5042839;28;20095;-83
2021/12/24 02:41:12;;;;;;;55.60;29.35;;;5.80;59.30;;;;;;5029442;28;20040;-85
2021/12/24 02:43:52;;;;;;;64.65;32.70;;;5.90;58.90;;;;;;5028621;28;20030;-85
2021/12/24 02:55:28;;;;;;;61.65;31.42;;;6.30;58.30;;;;;;5088471;28;20107;-85
2021/12/24 02:58:12;;;;;;;58.72;30.50;;;5.90;59.10;;;;;;5081312;28;20054;-84
2021/12/24 03:00:38;;;;;;;62.38;31.27;;;5.50;59.80;;;;;;5070111;28;20129;-84
2021/12/24 03:03:06;;;;;;;59.53;31.02;;;5.70;60.00;;;;;;5027491;28;20093;-85
2021/12/24 03:05:37;;;;;;;61.28;30.52;;;5.80;60.00;;;;;;5047398;28;21668;-84
2021/12/24 03:08:05;;;;;;;61.20;31.25;;;6.00;59.70;;;;;;5069378;28;20032;-86
2021/12/24 03:10:35;;;;;;;64.60;32.03;;;6.10;59.90;;;;;;5036464;28;20025;-82
2021/12/24 03:13:04;;;;;;;72.60;36.00;;;6.30;59.40;;;;;;5056324;28;20502;-82
2021/12/24 03:15:38;;;;;;;63.40;31.92;;;6.60;59.70;;;;;;5045444;28;20039;-83
2021/12/24 03:18:06;;;;;;;66.63;31.50;;;6.90;58.40;;;;;;5036145;28;20353;-84
2021/12/24 03:20:38;;;;;;;62.20;32.83;;;7.10;57.50;;;;;;5019795;28;20496;-85
2021/12/24 03:23:21;;;;;;;68.90;34.30;;;7.10;58.20;;;;;;5046550;28;20052;-82
2021/12/24 03:25:51;;;;;;;60.45;32.42;;;7.30;57.20;;;;;;5035790;28;20029;-85
2021/12/24 03:28:29;;;;;;;63.75;33.55;;;7.30;56.30;;;;;;5036529;28;20022;-82
2021/12/24 03:30:55;;;;;;;64.32;33.60;;;7.30;56.30;;;;;;5018797;28;20041;-83
2021/12/24 03:33:56;;;;;;;66.43;34.08;;;7.40;56.40;;;;;;5018742;28;20041;-84
2021/12/24 03:36:28;;;;;;;69.35;34.22;;;7.30;56.40;;;;;;5029104;28;20033;-87
2021/12/24 03:38:59;;;;;;;63.03;32.92;;;7.20;57.00;;;;;;5038844;28;20025;-84
2021/12/24 03:41:25;;;;;;;69.95;35.33;;;7.10;56.90;;;;;;5051618;28;20040;-85
2021/12/24 03:43:57;;;;;;;73.95;36.13;;;7.30;57.00;;;;;;5028005;28;20415;-85
2021/12/24 03:46:41;;;;;;;70.93;34.45;;;7.40;57.10;;;;;;5034073;28;20057;-85
2021/12/24 03:49:16;;;;;;;75.65;35.97;;;7.70;56.40;;;;;;5018011;28;20053;-85
2021/12/24 03:51:59;;;;;;;63.60;31.88;;;7.90;55.90;;;;;;5050683;28;20033;-85
2021/12/24 04:07:43;;;;;;;69.30;39.05;;;8.00;55.10;;;;;;4991481;28;1461923;-83
2021/12/24 04:10:31;;;;;;;70.03;37.88;;;8.10;55.90;;;;;;5095393;28;20045;-85
2021/12/24 04:12:57;;;;;;;70.05;36.33;;;8.00;55.40;;;;;;5069042;28;20030;-84
2021/12/24 04:15:23;;;;;;;70.60;37.05;;;8.10;55.50;;;;;;5063292;28;20390;-85
2021/12/24 04:18:00;;;;;;;66.03;35.85;;;8.10;55.70;;;;;;5056553;28;20035;-86
2021/12/24 04:26:10;;;;;;;81.72;38.00;;;7.80;56.00;;;;;;5027657;28;20517;-85
2021/12/24 04:28:36;;;;;;;;;;;7.90;56.40;;;;;;5095563;28;20025;-85
2021/12/24 04:31:02;;;;;;;69.93;36.45;;;8.10;55.60;;;;;;5026104;28;20342;-85
2021/12/24 04:33:44;;;;;;;71.28;37.53;;;8.10;55.80;;;;;;5092894;28;20026;-85
2021/12/24 04:36:53;;;;;;;83.00;39.22;;;8.00;56.00;;;;;;5086561;28;20060;-86
2021/12/24 05:04:01;;;;;;;84.93;41.85;;;7.80;56.80;;;;;;5006274;28;20034;-83
2021/12/24 05:06:36;;;;;;;78.97;40.80;;;7.70;56.60;;;;;;5006073;28;20038;-86
2021/12/24 05:09:12;;;;;;;85.50;42.13;;;7.80;56.50;;;;;;4993776;28;20022;-86
2021/12/24 05:11:38;;;;;;;85.38;41.85;;;7.90;55.70;;;;;;4990623;28;20042;-86
2021/12/24 05:14:15;;;;;;;90.70;44.45;;;7.90;56.00;;;;;;4995211;28;20027;-86
2021/12/24 05:16:49;;;;;;;78.47;38.45;;;7.90;56.40;;;;;;4974760;28;20043;-85
2021/12/24 05:22:05;;;;;;;88.07;43.20;;;7.80;55.80;;;;;;4975733;28;20043;-86
2021/12/24 05:24:37;;;;;;;86.25;43.55;;;7.60;56.40;;;;;;4975356;28;20034;-86
2021/12/24 05:27:20;;;;;;;88.05;44.38;;;7.60;56.50;;;;;;4975619;28;20050;-86
2021/12/24 05:29:55;;;;;;;93.00;44.75;;;7.60;56.10;;;;;;4984126;28;20125;-85
2021/12/24 05:32:30;;;;;;;89.13;44.17;;;7.80;56.40;;;;;;4975514;28;20038;-86
2021/12/24 05:35:22;;;;;;;101.32;46.00;;;7.80;55.80;;;;;;4975498;28;20042;-85
2021/12/24 05:37:47;;;;;;;87.43;41.17;;;7.90;55.70;;;;;;4975203;28;20097;-86
2021/12/24 05:40:16;;;;;;;96.45;43.35;;;7.90;56.20;;;;;;5008831;28;20033;-86
2021/12/24 05:46:06;;;;;;;94.07;45.13;;;8.00;55.90;;;;;;5055626;28;20066;-82
2021/12/24 05:48:32;;;;;;;91.38;43.47;;;8.00;55.90;;;;;;5036864;28;20037;-84
2021/12/24 05:51:03;;;;;;;89.07;43.63;;;7.70;56.80;;;;;;5038159;28;20053;-85
2021/12/24 05:54:00;;;;;;;92.60;44.70;;;7.60;56.90;;;;;;5043065;28;20056;-85
2021/12/24 05:57:00;;;;;;;79.70;40.55;;;7.80;56.60;;;;;;5054616;28;20049;-85
2021/12/24 05:59:36;;;;;;;89.50;42.70;;;7.70;56.60;;;;;;5056810;28;20020;-85
2021/12/24 06:02:02;;;;;;;81.72;40.45;;;7.60;56.70;;;;;;5063938;28;20032;-85
2021/12/24 06:04:34;;;;;;;92.13;44.58;;;7.70;56.50;;;;;;5073349;28;20441;-86
2021/12/24 06:07:08;;;;;;;87.70;43.35;;;7.80;56.30;;;;;;5054978;28;20052;-85
2021/12/24 06:09:42;;;;;;;92.68;43.22;;;7.70;56.80;;;;;;5072340;28;20511;-84
2021/12/24 06:12:25;;;;;;;89.80;42.78;;;7.70;56.40;;;;;;5052970;28;20521;-85
2021/12/24 06:14:54;;;;;;;102.03;45.42;;;7.60;56.30;;;;;;5052739;28;20037;-85
2021/12/24 06:17:23;;;;;;;89.55;46.22;;;7.50;57.60;;;;;;5053320;28;20033;-85
2021/12/24 06:19:54;;;;;;;94.70;45.30;;;7.60;57.50;;;;;;5052230;28;20025;-85
2021/12/24 06:23:02;;;;;;;92.78;44.22;;;7.70;57.30;;;;;;4702702;28;9999919;-85
2021/12/24 06:25:45;;;;;;;102.90;46.72;;;7.70;57.50;;;;;;5069310;28;20041;-83
2021/12/24 06:29:01;;;;;;;;;;;;;;;;;;;;;
2021/12/24 06:32:01;;;;;;;101.72;49.40;;;8.10;56.40;;;;;;5052002;28;20036;-84
2021/12/24 06:34:53;;;;;;;113.97;52.15;;;7.50;57.10;;;;;;5050092;28;20036;-85
2021/12/24 06:38:01;;;;;;;105.30;49.58;;;7.10;58.70;;;;;;5026863;28;20051;-84
2021/12/24 06:55:48;;;;;;;107.78;51.22;;;6.10;61.10;;;;;;5249408;23;20135;-87
2021/12/24 07:02:37;;;;;;;86.22;42.28;;;6.70;59.60;;;;;;4978617;28;20041;-86
2021/12/24 07:05:20;;;;;;;86.47;42.78;;;6.90;59.50;;;;;;4989023;28;20042;-85
2021/12/24 07:08:25;;;;;;;92.43;44.92;;;7.40;58.80;;;;;;4955300;28;20034;-85
2021/12/24 07:11:56;;;;;;;85.88;42.28;;;7.30;58.70;;;;;;4899081;29;20028;-86
2021/12/24 07:20:14;;;;;;;;;;;;;;;;;;;;;
2021/12/24 07:38:13;;;;;;;;;;;;;;;;;;;;;
2021/12/24 08:34:18;;;;;;;;;;;;;;;;;;;;;
2021/12/24 08:37:35;;;;;;;130.50;67.53;;;5.60;68.30;;;;;;5006982;28;20041;-86
2021/12/24 08:50:05;;;;;;;;;;;;;;;;;;;;;
2021/12/24 09:01:06;;;;;;;116.15;60.65;;;8.10;62.50;;;;;;5212620;23;20050;-86
2021/12/24 09:04:35;;;;;;;102.53;52.78;;;8.80;60.30;;;;;;5082947;23;20466;-85
2021/12/24 09:11:08;;;;;;;;;;;;;;;;;;;;;
2021/12/24 09:14:31;;;;;;;115.30;58.05;;;9.20;58.60;;;;;;5022360;28;20136;-85
2021/12/24 09:17:45;;;;;;;;;;;;;;;;;;;;;
2021/12/24 09:21:02;;;;;;;122.10;63.00;;;9.00;60.40;;;;;;5377884;23;20052;-84
2021/12/24 09:26:36;;;;;;;137.70;70.13;;;9.10;59.60;;;;;;5432262;23;20078;-85
2021/12/24 09:29:28;;;;;;;125.78;65.75;;;9.00;60.00;;;;;;4989672;28;20121;-91
2021/12/24 09:37:47;;;;;;;115.88;58.63;;;9.60;59.30;;;;;;5014696;28;20054;-95
2021/12/24 09:40:21;;;;;;;118.43;59.53;;;9.60;58.70;;;;;;4919223;29;20497;-84
2021/12/24 09:44:04;;;;;;;124.00;59.75;;;9.50;59.00;;;;;;4919283;29;20480;-87
2021/12/24 09:47:04;;;;;;;;;;;;;;;;;;;;;
2021/12/24 09:56:45;;;;;;;;;;;;;;;;;;;;;
2021/12/24 10:06:22;;;;;;;114.55;58.42;;;9.50;59.50;;;;;;5390767;23;20112;-87
2021/12/24 10:09:31;;;;;;;86.85;43.78;;;9.70;59.10;;;;;;4934081;29;20063;-87
2021/12/24 10:15:42;;;;;;;108.47;54.50;;;9.90;59.10;;;;;;5333239;23;20054;-86
2021/12/24 10:30:31;;;;;;;105.93;56.50;;;9.70;60.10;;;;;;4995007;28;20529;-87
2021/12/24 10:33:51;;;;;;;133.50;64.93;;;9.80;60.40;;;;;;4978844;28;20054;-92
2021/12/24 11:49:50;;;;;;;102.15;55.55;;;10.80;60.20;;;;;;1563091;23;20367;-94
2021/12/24 11:52:26;;;;;;;89.40;51.03;;;10.30;62.00;;;;;;4974290;28;20066;-87
2021/12/24 12:01:08;;;;;;;113.22;60.25;;;9.60;65.10;;;;;;4915109;29;20252;-95
2021/12/24 12:04:00;;;;;;;101.78;55.15;;;10.30;63.50;;;;;;4899141;29;20032;-94
2021/12/24 12:06:26;;;;;;;138.45;71.40;;;10.20;63.80;;;;;;4899258;29;20076;-89
2021/12/24 12:08:54;;;;;;;97.03;54.10;;;10.70;63.80;;;;;;4899638;29;20029;-95
2021/12/24 12:11:35;;;;;;;190.10;109.80;;;11.10;61.80;;;;;;4899337;29;20036;-89
2021/12/24 12:14:02;;;;;;;97.85;55.95;;;11.10;62.30;;;;;;4898770;29;20028;-89
2021/12/24 12:16:42;;;;;;;108.22;62.95;;;10.90;62.50;;;;;;4899291;29;20044;-94
2021/12/24 12:19:23;;;;;;;113.15;59.90;;;10.80;63.00;;;;;;4899287;29;20032;-90
2021/12/24 12:28:29;;;;;;;93.83;53.67;;;11.70;61.60;;;;;;4669232;23;10002498;-93
2021/12/24 12:31:30;;;;;;;110.47;61.30;;;11.90;60.30;;;;;;4978995;28;20042;-90
2021/12/24 12:41:35;;;;;;;174.60;91.03;;;12.00;60.60;;;;;;5018212;28;20458;-92
2021/12/24 12:44:05;;;;;;;130.80;73.45;;;11.90;60.80;;;;;;4999217;28;20034;-91
2021/12/24 12:46:40;;;;;;;120.17;66.17;;;11.90;60.70;;;;;;4999742;28;20034;-90
2021/12/24 12:52:31;;;;;;;191.38;87.53;;;12.00;60.70;;;;;;5017608;28;20149;-90
2021/12/24 12:54:58;;;;;;;195.88;101.50;;;11.50;62.20;;;;;;4995649;28;20095;-91
2021/12/24 12:57:46;;;;;;;135.57;70.65;;;11.30;63.10;;;;;;4994139;28;20034;-94
2021/12/24 13:00:24;;;;;;;195.02;87.82;;;10.90;63.20;;;;;;4999615;28;20022;-91
2021/12/24 13:03:10;;;;;;;178.48;82.25;;;10.90;63.90;;;;;;5000008;28;20065;-91
2021/12/24 13:11:23;;;;;;;121.15;61.95;;;10.10;65.90;;;;;;5692585;23;20054;-91
2021/12/24 13:13:57;;;;;;;198.93;104.57;;;10.10;66.90;;;;;;4990716;28;20105;-92
2021/12/24 13:17:04;;;;;;;;;;;;;;;;;;;;;
2021/12/24 18:02:48;;;;;;;;;;;;;;;;;;;;;
2021/12/24 18:16:15;;;;;;;189.73;123.45;;;12.90;68.40;;;;;;5035061;23;20208;-89
2021/12/24 18:25:10;;;;;;;;;;;;;;;;;;;;;
2021/12/24 18:28:06;;;;;;;;;;;;;;;;;;;;;
2021/12/24 18:34:18;;;;;;;41.25;32.72;;;12.90;69.00;;;;;;5966395;23;20076;-94
2021/12/24 18:51:47;;;;;;;81.93;58.28;;;12.10;71.30;;;;;;5373656;23;20573;-93
2021/12/24 19:08:57;;;;;;;68.75;47.55;;;12.50;70.70;;;;;;5413458;23;20792;31
2021/12/24 19:21:12;;;;;;;19.77;16.48;;;12.50;71.00;;;;;;5547002;23;20038;-93
2021/12/24 19:29:49;;;;;;;28.20;25.17;;;13.30;68.20;;;;;;5762260;23;20050;-95
2021/12/24 19:44:19;;;;;;;26.48;21.80;;;13.20;68.30;;;;;;4953649;29;20983;-92
2021/12/24 20:02:06;;;;;;;15.10;10.48;;;13.70;67.00;;;;;;4971198;28;20074;-88
2021/12/24 20:04:59;;;;;;;20.77;12.13;;;13.50;67.20;;;;;;4892171;29;20540;-89
2021/12/24 20:16:52;;;;;;;17.33;13.40;;;14.10;65.30;;;;;;5021800;23;20062;-90
2021/12/24 20:19:46;;;;;;;33.65;21.17;;;13.80;66.10;;;;;;5211858;23;20488;-86
2021/12/24 20:29:27;;;;;;;13.63;9.32;;;13.30;66.70;;;;;;4937633;28;20038;-89
2021/12/24 20:41:23;;;;;;;18.17;12.30;;;13.20;66.90;;;;;;5506843;23;20400;-90
2021/12/24 22:16:05;;;;;;;41.90;33.40;;;13.10;65.30;;;;;;5157189;23;20289;-91
2021/12/24 22:22:46;;;;;;;94.15;71.30;;;13.10;65.10;;;;;;4923566;28;20028;-91
2021/12/24 22:34:14;;;;;;;82.18;58.60;;;13.40;64.90;;;;;;4973381;28;20033;-91
2021/12/24 22:59:16;;;;;;;57.90;39.90;;;13.30;64.60;;;;;;4954478;23;20126;-87
2021/12/24 23:02:14;;;;;;;50.08;36.40;;;13.30;64.40;;;;;;5028537;23;20070;-92
2021/12/24 23:25:46;;;;;;;33.97;22.80;;;13.10;64.20;;;;;;5025079;23;21180;-90
2021/12/24 23:31:45;;;;;;;39.88;26.85;;;13.00;64.50;;;;;;5179959;23;20545;-91
2021/12/24 23:44:57;;;;;;;30.40;19.95;;;12.80;65.00;;;;;;6148229;23;20072;31
